ADDS METAR Data

Data at: 1830 UTC 20 Jul 2018

METAR for:KBHB (Bar Harbor/Hancock C, ME, US)
Text:KBHB 201756Z AUTO 20011KT 10SM CLR 26/14 A3019 RMK AO2 SLP226 T02610144 10267 20189 56003 $
Temperature: 26.1°C ( 79°F)
Dewpoint: 14.4°C ( 58°F) [RH = 49%]
Pressure (altimeter):30.19 inches Hg (1022.4 mb) [Sea level pressure: 1022.6 mb]
Winds:from the SSW (200 degrees) at 13 MPH (11 knots; 5.7 m/s)
Visibility:10 or more sm (16+ km)
Ceiling:at least 12,000 feet AGL
Clouds:sky clear below 12,000 feet AGL
QC Flag:automated observation with no human augmentation; SOME DATA ABOVE MAY BE INACCURATE!!!"$" is an indication the sensor requires maintenance.